Terminal Aerodrome Forecast
Issued by NWS Topeka, KS

Home | Current Version | Previous Version | Text Only | Print | Product List | Glossary On
Versions: 1 2 3 4 5 6 7 8 9 10 11 12 13 14 15 16 17 18 19
981
FTUS43 KTOP 172328
TAFTOP
TAF
KTOP 172328Z 1800/1824 17005KT P6SM BKN035
      TEMPO 1804/1807 BKN019
     FM180800 24004KT 6SM BR SCT035
     FM181400 23007KT P6SM SKC=

USA.gov is the U.S. government's official web portal to all federal, state and local government web resources and services.